Time;durP1;ratioP1;P1;durP2;ratioP2;P2;SDS_P1;SDS_P2;PMS_P1;PMS_P2;Temp;Humidity;BMP_temperature;BMP_pressure;BME280_temperature;BME280_humidity;BME280_pressure;Samples;Min_cycle;Max_cycle;Signal;HPM_P1;HPM_P2
2020/12/19 00:01:48;;;;;;;2.25;0.80;;;17.10;68.80;;;;;;4986569;28;20042;-60
2020/12/19 00:04:38;;;;;;;0.88;0.50;;;17.10;68.80;;;;;;4990744;28;20034;-62
2020/12/19 00:07:10;;;;;;;1.20;0.60;;;17.10;68.80;;;;;;4992901;28;20160;-61
2020/12/19 00:09:42;;;;;;;2.25;0.60;;;17.10;68.80;;;;;;4993137;28;20047;-62
2020/12/19 00:12:21;;;;;;;4.70;0.90;;;17.20;69.00;;;;;;4987905;28;20049;-62
2020/12/19 00:14:53;;;;;;;3.85;1.10;;;17.20;68.90;;;;;;4994345;28;20327;-62
2020/12/19 00:17:26;;;;;;;1.83;0.80;;;17.30;69.00;;;;;;4988505;28;20378;-62
2020/12/19 00:19:56;;;;;;;;;;;17.30;69.10;;;;;;4984186;28;20066;-63
2020/12/19 00:22:28;;;;;;;0.85;0.50;;;17.30;69.00;;;;;;4993887;28;19979;-61
2020/12/19 00:24:59;;;;;;;4.40;0.80;;;17.40;69.00;;;;;;4992843;28;20133;-61
2020/12/19 00:27:33;;;;;;;1.02;0.77;;;17.40;68.80;;;;;;4990635;28;20292;-61
2020/12/19 00:30:05;;;;;;;2.58;0.63;;;17.40;68.80;;;;;;4992733;28;20038;-60
2020/12/19 00:32:41;;;;;;;2.95;0.98;;;17.40;68.80;;;;;;4992346;28;20474;-60
2020/12/19 00:35:14;;;;;;;4.05;0.80;;;17.40;68.80;;;;;;4984113;28;20050;-61
2020/12/19 00:37:45;;;;;;;2.28;0.88;;;17.40;68.80;;;;;;4999135;28;20052;-61
2020/12/19 00:40:18;;;;;;;4.47;1.00;;;17.50;68.70;;;;;;4992525;28;20507;-61
2020/12/19 00:42:50;;;;;;;4.57;1.13;;;17.50;68.70;;;;;;4986717;28;20042;-62
2020/12/19 00:45:20;;;;;;;3.80;1.10;;;17.50;68.60;;;;;;4981671;28;20042;-63
2020/12/19 00:47:50;;;;;;;2.85;0.80;;;17.50;68.60;;;;;;4990786;28;20108;-61
2020/12/19 00:50:21;;;;;;;2.80;0.75;;;17.50;68.60;;;;;;4989030;28;20147;-62
2020/12/19 00:52:53;;;;;;;0.65;0.60;;;17.50;68.60;;;;;;4984326;28;20049;-60
2020/12/19 00:55:24;;;;;;;1.05;0.63;;;17.60;68.70;;;;;;4992436;28;20054;-61
2020/12/19 00:57:54;;;;;;;1.95;0.70;;;17.60;68.70;;;;;;4996984;28;20069;-62
2020/12/19 01:00:30;;;;;;;2.05;0.60;;;17.60;68.60;;;;;;4987019;28;20041;-58
2020/12/19 01:03:02;;;;;;;3.15;1.02;;;17.70;68.70;;;;;;4992832;28;20038;-61
2020/12/19 01:05:34;;;;;;;2.50;0.73;;;17.70;68.70;;;;;;4987854;28;20351;-63
2020/12/19 01:08:07;;;;;;;3.90;1.02;;;17.70;68.70;;;;;;4985107;28;20644;-61
2020/12/19 01:10:42;;;;;;;1.70;0.60;;;17.70;68.70;;;;;;4988501;28;20038;-61
2020/12/19 01:13:15;;;;;;;5.97;0.98;;;17.70;68.70;;;;;;4993207;28;20040;-58
2020/12/19 01:15:50;;;;;;;4.57;1.02;;;17.80;68.80;;;;;;4987977;28;20058;-60
2020/12/19 01:18:22;;;;;;;2.70;0.90;;;17.80;68.80;;;;;;4987406;28;20255;-60
2020/12/19 01:20:54;;;;;;;3.70;1.00;;;17.80;68.80;;;;;;4985970;28;20052;-62
2020/12/19 01:23:27;;;;;;;2.90;0.95;;;17.90;68.90;;;;;;4992781;28;20494;-64
2020/12/19 01:26:03;;;;;;;1.42;0.70;;;17.90;68.90;;;;;;4989552;28;20043;-62
2020/12/19 01:28:34;;;;;;;1.80;0.73;;;17.90;68.90;;;;;;4994862;28;20054;-62
2020/12/19 01:31:07;;;;;;;3.25;0.90;;;18.00;68.90;;;;;;4991041;28;20182;-62
2020/12/19 01:33:39;;;;;;;2.53;0.65;;;18.00;69.00;;;;;;4991844;28;20479;-62
2020/12/19 01:36:16;;;;;;;5.75;0.88;;;18.10;68.90;;;;;;4990552;28;20222;-62
2020/12/19 01:38:46;;;;;;;1.67;0.50;;;18.10;68.90;;;;;;4986789;28;20078;-62
2020/12/19 01:41:23;;;;;;;3.10;0.63;;;18.10;68.90;;;;;;4995875;28;20103;-61
2020/12/19 01:44:00;;;;;;;6.25;0.75;;;18.20;69.00;;;;;;4989283;28;20526;-60
2020/12/19 01:46:55;;;;;;;5.32;0.82;;;18.20;69.00;;;;;;4992710;28;20513;-62
2020/12/19 01:49:32;;;;;;;2.63;0.80;;;18.20;68.90;;;;;;4992619;28;20050;-62
2020/12/19 01:52:05;;;;;;;5.32;1.30;;;18.30;69.00;;;;;;4997913;28;20050;-64
2020/12/19 01:54:35;;;;;;;2.20;0.60;;;18.40;69.00;;;;;;4985014;28;20558;-62
2020/12/19 01:57:05;;;;;;;2.05;0.60;;;18.40;68.90;;;;;;4989785;28;20054;-63
2020/12/19 01:59:35;;;;;;;2.70;0.80;;;18.40;68.90;;;;;;4986463;28;20202;-62
2020/12/19 02:02:12;;;;;;;1.58;0.70;;;18.40;68.80;;;;;;4983100;28;20367;-61
2020/12/19 02:04:45;;;;;;;0.93;0.70;;;18.50;68.80;;;;;;4987120;28;20120;-62
2020/12/19 02:07:19;;;;;;;0.60;0.50;;;18.50;68.80;;;;;;4993703;28;20038;-62
2020/12/19 02:09:52;;;;;;;2.55;0.80;;;18.50;68.70;;;;;;4996905;28;20046;-64
2020/12/19 02:12:23;;;;;;;1.30;0.57;;;18.60;68.70;;;;;;4987929;28;20053;-62
2020/12/19 02:14:57;;;;;;;2.13;0.50;;;18.60;68.60;;;;;;4984463;28;20124;-61
2020/12/19 02:17:30;;;;;;;5.13;1.08;;;18.70;68.50;;;;;;4988944;28;20275;-64
2020/12/19 02:20:04;;;;;;;2.08;0.90;;;18.70;68.40;;;;;;4989917;28;20058;-60
2020/12/19 02:22:37;;;;;;;2.25;0.60;;;18.70;68.30;;;;;;4992552;28;20121;-65
2020/12/19 02:25:08;;;;;;;1.77;0.80;;;18.80;68.30;;;;;;4987034;28;20042;-66
2020/12/19 02:27:39;;;;;;;2.83;0.90;;;18.80;68.10;;;;;;5002257;28;20120;-67
2020/12/19 02:30:09;;;;;;;5.82;0.98;;;18.80;68.00;;;;;;4995602;28;20311;-66
2020/12/19 02:32:44;;;;;;;2.95;0.80;;;18.80;67.90;;;;;;4984145;28;20077;-67
2020/12/19 02:35:16;;;;;;;1.92;0.82;;;18.80;67.80;;;;;;4988462;28;20046;-66
2020/12/19 02:37:47;;;;;;;1.58;0.60;;;18.90;67.80;;;;;;4998331;28;20046;-62
2020/12/19 02:40:18;;;;;;;2.08;0.75;;;18.90;67.70;;;;;;4987867;28;20046;-62
2020/12/19 02:42:52;;;;;;;3.65;0.63;;;18.90;67.60;;;;;;4987545;28;20045;-67
2020/12/19 02:45:22;;;;;;;2.40;0.73;;;18.90;67.50;;;;;;4985824;28;20052;-66
2020/12/19 02:47:52;;;;;;;3.75;0.73;;;18.90;67.40;;;;;;4994255;28;20128;-68
2020/12/19 02:50:23;;;;;;;4.60;0.95;;;18.90;67.30;;;;;;4988830;28;20054;-64
2020/12/19 02:52:54;;;;;;;3.30;1.10;;;18.90;67.30;;;;;;4975822;28;20108;-64
2020/12/19 02:55:25;;;;;;;3.53;1.05;;;18.90;67.10;;;;;;4986214;28;20132;-67
2020/12/19 02:58:00;;;;;;;2.03;0.68;;;19.00;67.00;;;;;;4984217;28;20050;-67
2020/12/19 03:00:32;;;;;;;2.85;0.90;;;19.00;67.00;;;;;;4984525;28;20719;-68
2020/12/19 03:03:06;;;;;;;5.57;0.90;;;19.00;67.00;;;;;;4998675;28;20087;-71
2020/12/19 03:05:39;;;;;;;3.40;1.10;;;19.00;66.60;;;;;;4987234;28;20072;-68
2020/12/19 03:08:12;;;;;;;3.10;0.77;;;19.00;66.50;;;;;;4990726;28;20121;-69
2020/12/19 03:10:45;;;;;;;3.83;0.90;;;19.00;66.60;;;;;;4984624;28;20141;-68
2020/12/19 03:13:23;;;;;;;1.60;0.68;;;18.90;66.40;;;;;;4992374;28;20053;-68
2020/12/19 03:15:54;;;;;;;3.80;0.85;;;18.90;66.40;;;;;;4983543;28;21070;-69
2020/12/19 03:18:28;;;;;;;4.13;1.25;;;18.90;66.40;;;;;;4995901;28;20050;-68
2020/12/19 03:21:03;;;;;;;4.80;1.15;;;19.00;66.40;;;;;;4982909;28;20411;-66
2020/12/19 03:23:33;;;;;;;1.23;0.63;;;19.00;66.20;;;;;;4998158;28;20120;-65
2020/12/19 03:26:06;;;;;;;3.05;1.00;;;19.00;66.20;;;;;;4988445;28;20120;-66
2020/12/19 03:32:18;;;;;;;3.00;0.70;;;19.00;66.30;;;;;;4985789;28;19928;-63
2020/12/19 03:34:50;;;;;;;5.80;1.13;;;19.00;66.20;;;;;;4984930;28;20481;-64
2020/12/19 03:37:22;;;;;;;7.25;1.08;;;19.10;66.30;;;;;;4990580;28;20081;-63
2020/12/19 03:39:55;;;;;;;3.30;0.80;;;19.10;66.20;;;;;;4990619;28;20034;-62
2020/12/19 03:42:30;;;;;;;7.35;1.20;;;19.10;66.00;;;;;;4988929;28;20133;-63
2020/12/19 03:45:00;;;;;;;4.43;1.08;;;19.10;65.90;;;;;;4992357;28;20129;-64
2020/12/19 03:47:30;;;;;;;2.70;0.70;;;19.20;66.00;;;;;;4992972;28;20444;-63
2020/12/19 03:50:01;;;;;;;3.28;1.05;;;19.20;66.00;;;;;;4992897;28;20108;-63
2020/12/19 03:52:31;;;;;;;1.90;0.68;;;19.20;65.80;;;;;;4993206;28;20140;-65
2020/12/19 03:55:03;;;;;;;2.25;0.80;;;19.20;65.70;;;;;;5003354;28;20045;-66
2020/12/19 03:57:35;;;;;;;2.25;0.90;;;19.20;65.70;;;;;;4999008;28;20442;-64
2020/12/19 04:00:08;;;;;;;5.65;1.63;;;19.30;65.80;;;;;;5002657;28;20076;-66
2020/12/19 04:02:43;;;;;;;1.30;0.75;;;19.30;65.50;;;;;;4998145;28;20586;-65
2020/12/19 04:05:16;;;;;;;4.00;0.80;;;19.30;65.40;;;;;;5006973;28;20049;-64
2020/12/19 04:07:48;;;;;;;4.50;0.90;;;19.30;65.40;;;;;;4997837;28;20065;-64
2020/12/19 04:10:18;;;;;;;;;;;19.30;65.40;;;;;;5007474;28;20058;-63
2020/12/19 04:12:49;;;;;;;3.00;0.90;;;19.40;65.50;;;;;;4995875;28;20008;-64
2020/12/19 04:15:25;;;;;;;3.90;0.80;;;19.40;65.30;;;;;;4991235;28;20061;-63
2020/12/19 04:17:58;;;;;;;4.32;1.02;;;19.40;65.10;;;;;;5001359;28;20115;-62
2020/12/19 04:20:31;;;;;;;9.00;1.77;;;19.40;65.10;;;;;;4999261;28;20042;-62
2020/12/19 04:23:05;;;;;;;4.40;0.90;;;19.50;65.20;;;;;;5001911;28;20034;-65
2020/12/19 04:25:36;;;;;;;3.67;1.13;;;19.50;65.10;;;;;;5000159;28;20070;-65
2020/12/19 04:28:11;;;;;;;2.75;0.95;;;19.50;65.10;;;;;;5006068;28;20080;-64
2020/12/19 04:30:44;;;;;;;4.75;1.10;;;19.50;65.00;;;;;;4981212;28;20090;-65
2020/12/19 04:33:18;;;;;;;6.63;1.25;;;19.50;65.00;;;;;;4989582;28;20088;-65
2020/12/19 04:35:53;;;;;;;6.25;1.92;;;19.60;65.00;;;;;;4995758;28;20129;-64
2020/12/19 04:38:24;;;;;;;2.65;1.27;;;19.60;64.90;;;;;;4987066;28;20050;-64
2020/12/19 04:40:59;;;;;;;6.47;1.90;;;19.60;64.80;;;;;;4992034;28;20073;-65
2020/12/19 04:43:32;;;;;;;4.32;1.50;;;19.60;64.50;;;;;;4994264;28;20653;-64
2020/12/19 04:46:03;;;;;;;3.40;1.50;;;19.60;64.20;;;;;;4993277;28;20057;-65
2020/12/19 04:48:33;;;;;;;5.05;1.58;;;19.60;64.00;;;;;;4989085;28;20039;-65
2020/12/19 04:51:05;;;;;;;6.97;1.87;;;19.60;64.00;;;;;;4989682;28;20314;-67
2020/12/19 04:53:36;;;;;;;6.95;1.70;;;19.60;64.00;;;;;;4991766;28;20134;-67
2020/12/19 04:56:08;;;;;;;7.47;2.30;;;19.60;63.90;;;;;;4993818;28;20049;-64
2020/12/19 04:58:41;;;;;;;8.55;2.25;;;19.60;64.10;;;;;;4993828;28;20037;-64
2020/12/19 05:01:14;;;;;;;4.15;1.50;;;19.60;63.90;;;;;;4986262;28;20086;-66
2020/12/19 05:03:56;;;;;;;3.58;1.55;;;19.60;63.90;;;;;;4990458;28;20046;-65
2020/12/19 05:06:28;;;;;;;;;;;19.70;63.90;;;;;;4986035;28;20111;-67
2020/12/19 05:09:00;;;;;;;7.55;1.88;;;19.70;63.90;;;;;;4992027;28;19932;-65
2020/12/19 05:11:30;;;;;;;7.72;1.67;;;19.70;63.70;;;;;;4995010;28;20050;-67
2020/12/19 05:14:05;;;;;;;11.88;1.52;;;19.70;63.60;;;;;;4986118;28;20133;-69
2020/12/19 05:16:39;;;;;;;8.85;1.75;;;19.70;63.40;;;;;;4986356;28;20131;-64
2020/12/19 05:19:14;;;;;;;5.95;1.70;;;19.70;63.30;;;;;;4994919;28;20551;-64
2020/12/19 05:21:46;;;;;;;5.32;1.77;;;19.60;63.10;;;;;;4996985;28;20088;-69
2020/12/19 05:24:17;;;;;;;;;;;19.60;62.90;;;;;;4995482;28;20056;-67
2020/12/19 05:26:47;;;;;;;6.03;1.15;;;19.50;62.90;;;;;;5001818;28;19925;-63
2020/12/19 05:29:19;;;;;;;4.75;1.60;;;19.60;62.80;;;;;;4991066;28;20042;-64
2020/12/19 05:32:00;;;;;;;5.18;1.27;;;19.60;62.80;;;;;;4993210;28;20504;-68
2020/12/19 05:34:31;;;;;;;3.70;1.33;;;19.60;62.70;;;;;;4988979;28;20414;-65
2020/12/19 05:37:03;;;;;;;3.33;1.35;;;19.50;62.60;;;;;;4992438;28;20046;-65
2020/12/19 05:39:50;;;;;;;4.60;1.25;;;19.60;62.50;;;;;;4989612;28;20049;-64
2020/12/19 05:42:26;;;;;;;4.82;3.97;;;19.60;62.50;;;;;;4993430;28;20042;-64
2020/12/19 05:44:56;;;;;;;5.50;2.00;;;19.60;62.40;;;;;;4999502;28;20498;-64
2020/12/19 05:47:27;;;;;;;2.72;1.17;;;19.50;62.10;;;;;;4987451;28;20139;-66
2020/12/19 05:49:58;;;;;;;4.07;1.67;;;19.50;62.10;;;;;;4996818;28;20153;-71
2020/12/19 05:52:37;;;;;;;2.85;2.03;;;19.50;62.00;;;;;;4992373;28;20057;-70
2020/12/19 05:55:13;;;;;;;3.50;1.67;;;19.50;62.20;;;;;;4987351;28;20100;-72
2020/12/19 05:57:47;;;;;;;2.47;1.27;;;19.50;62.10;;;;;;4996216;28;20088;-71
2020/12/19 06:00:18;;;;;;;4.32;1.45;;;19.50;62.10;;;;;;4991477;28;20559;-71
2020/12/19 06:02:52;;;;;;;3.25;1.88;;;19.50;62.00;;;;;;4994634;28;20046;-70
2020/12/19 06:05:24;;;;;;;4.22;1.20;;;19.50;62.40;;;;;;4988312;28;20089;-69
2020/12/19 06:07:56;;;;;;;3.33;1.40;;;19.50;61.90;;;;;;4984937;28;20038;-66
2020/12/19 06:10:27;;;;;;;4.10;1.63;;;19.50;61.90;;;;;;4984819;28;20205;-71
2020/12/19 06:13:19;;;;;;;4.18;1.52;;;19.50;61.90;;;;;;4997576;28;20050;-70
2020/12/19 06:16:00;;;;;;;2.90;1.00;;;19.50;61.90;;;;;;4994313;28;20569;-70
2020/12/19 06:18:50;;;;;;;3.85;1.08;;;19.50;61.90;;;;;;4986011;28;20050;-70
2020/12/19 06:21:27;;;;;;;2.42;0.82;;;19.60;61.90;;;;;;4988872;28;20050;-70
2020/12/19 06:24:00;;;;;;;7.20;1.10;;;19.50;61.70;;;;;;4995987;28;20038;-65
2020/12/19 06:26:38;;;;;;;3.25;1.70;;;19.50;61.60;;;;;;4996088;28;20587;-70
2020/12/19 06:29:08;;;;;;;3.17;1.45;;;19.60;61.60;;;;;;4989521;28;20038;-70
2020/12/19 06:31:39;;;;;;;2.58;1.27;;;19.60;61.50;;;;;;4984168;28;20140;-69
2020/12/19 06:34:09;;;;;;;2.25;1.10;;;19.60;61.40;;;;;;4993253;28;20436;-69
2020/12/19 06:36:50;;;;;;;1.90;1.00;;;19.60;61.50;;;;;;4994806;28;20614;-69
2020/12/19 06:39:22;;;;;;;4.47;0.95;;;19.60;61.40;;;;;;5001150;28;20144;-68
2020/12/19 06:41:58;;;;;;;2.90;1.05;;;19.60;61.20;;;;;;4996886;28;20104;-69
2020/12/19 06:44:34;;;;;;;8.07;1.50;;;19.60;61.20;;;;;;4990612;28;20834;-69
2020/12/19 06:47:20;;;;;;;3.47;1.08;;;19.50;61.10;;;;;;4977369;28;20062;-69
2020/12/19 06:49:54;;;;;;;3.58;1.70;;;19.60;61.10;;;;;;4991231;28;20057;-68
2020/12/19 06:52:26;;;;;;;4.63;1.10;;;19.60;61.10;;;;;;4992147;28;20096;-70
2020/12/19 06:55:17;;;;;;;;;;;19.60;61.00;;;;;;4988324;28;20533;-69
2020/12/19 06:57:54;;;;;;;2.08;0.98;;;19.50;61.00;;;;;;4987729;28;20653;-68
2020/12/19 07:00:30;;;;;;;5.45;1.20;;;19.60;60.90;;;;;;4981036;28;20129;-68
2020/12/19 07:03:04;;;;;;;7.88;1.83;;;19.50;60.70;;;;;;4985799;28;20498;-67
2020/12/19 07:05:36;;;;;;;4.43;0.93;;;19.50;60.70;;;;;;4985894;28;20056;-67
2020/12/19 07:08:23;;;;;;;2.65;1.25;;;19.50;60.60;;;;;;4993205;28;20081;-67
2020/12/19 07:10:53;;;;;;;1.75;1.08;;;19.50;60.70;;;;;;4991686;28;20125;-69
2020/12/19 07:13:49;;;;;;;3.13;1.00;;;19.50;60.60;;;;;;4992651;28;20065;-67
2020/12/19 07:16:48;;;;;;;2.97;1.00;;;19.50;60.60;;;;;;4990544;28;20074;-67
2020/12/19 07:19:28;;;;;;;4.25;1.15;;;19.50;60.50;;;;;;4985721;28;20050;-67
2020/12/19 07:22:01;;;;;;;2.35;1.17;;;19.50;60.50;;;;;;4994456;28;20046;-68
2020/12/19 07:24:31;;;;;;;4.40;1.00;;;19.40;60.20;;;;;;4994976;28;20046;-67
2020/12/19 07:27:02;;;;;;;3.75;0.90;;;19.40;60.20;;;;;;4998351;28;20121;-65
2020/12/19 07:29:36;;;;;;;5.88;1.27;;;19.40;60.20;;;;;;4996043;28;20061;-63
2020/12/19 07:32:06;;;;;;;3.22;1.58;;;19.40;60.20;;;;;;4998591;28;20100;-66
2020/12/19 07:34:39;;;;;;;;;;;19.40;60.20;;;;;;4992289;28;20043;-67
2020/12/19 07:37:14;;;;;;;4.40;1.50;;;19.40;60.20;;;;;;4992961;28;20023;-66
2020/12/19 07:39:47;;;;;;;2.80;1.23;;;19.40;60.00;;;;;;4997680;28;20050;-66
2020/12/19 07:42:19;;;;;;;2.95;1.70;;;19.40;60.00;;;;;;4994057;28;20070;-66
2020/12/19 07:44:50;;;;;;;4.03;1.33;;;19.40;60.00;;;;;;4989880;28;20129;-63
2020/12/19 07:47:21;;;;;;;3.67;1.60;;;19.40;60.00;;;;;;5004406;28;20704;-66
2020/12/19 07:49:52;;;;;;;2.67;1.30;;;19.30;59.90;;;;;;4990934;28;20149;-67
2020/12/19 07:52:24;;;;;;;3.30;1.23;;;19.30;59.90;;;;;;4995531;28;20052;-65
2020/12/19 07:55:00;;;;;;;3.25;0.80;;;19.30;59.80;;;;;;5001468;28;20060;-68
2020/12/19 07:57:35;;;;;;;1.35;0.80;;;19.30;59.80;;;;;;4993021;28;20413;-65
2020/12/19 08:00:06;;;;;;;2.50;1.00;;;19.30;59.70;;;;;;4993694;28;20519;-66
2020/12/19 08:02:39;;;;;;;2.25;1.10;;;19.30;59.70;;;;;;4993622;28;20041;-66
2020/12/19 08:05:13;;;;;;;3.85;0.90;;;19.30;59.60;;;;;;4986026;28;20042;-67
2020/12/19 08:07:44;;;;;;;2.58;1.00;;;19.30;59.50;;;;;;4994035;28;20042;-66
2020/12/19 08:10:17;;;;;;;5.22;1.30;;;19.20;59.40;;;;;;4993606;28;20517;-68
2020/12/19 08:12:50;;;;;;;1.35;1.05;;;19.20;59.30;;;;;;4987514;28;20050;-67
2020/12/19 08:15:24;;;;;;;3.75;1.10;;;19.20;59.50;;;;;;4988426;28;20046;-67
2020/12/19 08:18:07;;;;;;;2.72;1.00;;;19.20;59.40;;;;;;4990871;28;20046;-64
2020/12/19 08:20:42;;;;;;;3.15;1.17;;;19.20;59.50;;;;;;4990870;28;20042;-64
2020/12/19 08:23:18;;;;;;;1.98;1.02;;;19.20;59.40;;;;;;5002886;28;20043;-64
2020/12/19 08:25:54;;;;;;;5.30;1.42;;;19.20;59.40;;;;;;4985257;28;20157;-65
2020/12/19 08:28:24;;;;;;;2.20;0.80;;;19.20;59.20;;;;;;4993275;28;20045;-64
2020/12/19 08:30:54;;;;;;;3.67;1.10;;;19.20;59.40;;;;;;4998175;28;20572;-66
2020/12/19 08:33:26;;;;;;;1.63;1.00;;;19.20;59.40;;;;;;4989891;28;20057;-64
2020/12/19 08:36:00;;;;;;;3.17;1.20;;;19.20;59.40;;;;;;4997722;28;20045;-64
2020/12/19 08:38:33;;;;;;;2.65;1.10;;;19.20;59.40;;;;;;4992102;28;20239;-64
2020/12/19 08:41:05;;;;;;;3.10;0.90;;;19.10;59.20;;;;;;4985030;28;20045;-66
2020/12/19 08:43:40;;;;;;;3.40;0.98;;;19.10;59.20;;;;;;4992741;28;20052;-64
2020/12/19 08:46:14;;;;;;;1.95;0.88;;;19.10;59.10;;;;;;4992534;28;20524;-66
2020/12/19 08:48:45;;;;;;;2.75;1.05;;;19.10;59.10;;;;;;4985268;28;20053;-63
2020/12/19 08:51:18;;;;;;;1.80;1.05;;;19.10;59.20;;;;;;4992825;28;20050;-65
2020/12/19 08:53:49;;;;;;;1.48;0.98;;;19.10;59.10;;;;;;4990085;28;20069;-67
2020/12/19 08:56:25;;;;;;;2.70;1.17;;;19.10;59.10;;;;;;4987591;28;20049;-67
2020/12/19 08:58:56;;;;;;;1.40;0.93;;;19.10;59.00;;;;;;4996390;28;20132;-64
2020/12/19 09:01:32;;;;;;;2.10;0.85;;;19.00;59.00;;;;;;4985847;28;20034;-67
2020/12/19 09:04:10;;;;;;;2.75;0.70;;;19.00;59.10;;;;;;4993267;28;20145;-66
2020/12/19 09:06:57;;;;;;;2.67;0.90;;;19.00;59.10;;;;;;4987661;28;20034;-67
2020/12/19 09:09:31;;;;;;;1.00;0.68;;;19.00;59.10;;;;;;4994812;28;20046;-67
2020/12/19 09:12:15;;;;;;;2.00;0.80;;;19.00;59.00;;;;;;4994535;28;20057;-67
2020/12/19 09:14:52;;;;;;;2.85;0.90;;;19.00;58.90;;;;;;4988501;28;20053;-63
2020/12/19 09:17:32;;;;;;;1.45;0.63;;;19.00;59.10;;;;;;4985552;28;20145;-65
2020/12/19 09:20:08;;;;;;;4.85;1.70;;;18.90;59.00;;;;;;4993560;28;20038;-66
2020/12/19 09:22:39;;;;;;;2.88;0.60;;;18.90;59.00;;;;;;4985330;28;20522;-66
2020/12/19 09:25:11;;;;;;;4.17;1.10;;;18.90;59.10;;;;;;4994819;28;20562;-65
2020/12/19 09:27:42;;;;;;;3.65;1.05;;;18.90;59.10;;;;;;4989111;28;20408;-64
2020/12/19 09:30:12;;;;;;;3.80;1.00;;;18.90;59.20;;;;;;4996962;28;20041;-66
2020/12/19 09:32:43;;;;;;;2.35;0.98;;;18.90;59.20;;;;;;4989968;28;20086;-65
2020/12/19 09:35:16;;;;;;;2.60;0.75;;;18.90;59.10;;;;;;4999721;28;20050;-66
2020/12/19 09:37:50;;;;;;;3.97;1.10;;;18.90;59.20;;;;;;4998317;28;20046;-66
2020/12/19 09:40:31;;;;;;;;;;;18.90;59.30;;;;;;4994140;28;20150;-65
2020/12/19 09:43:04;;;;;;;;;;;18.90;59.30;;;;;;4987415;28;20345;-65
2020/12/19 09:45:36;;;;;;;4.13;1.15;;;18.90;59.30;;;;;;4991549;28;19956;-65
2020/12/19 09:48:08;;;;;;;1.23;0.77;;;18.90;59.40;;;;;;4990453;28;20046;-65
2020/12/19 09:50:41;;;;;;;1.83;0.60;;;18.90;59.50;;;;;;4988333;28;20377;-67
2020/12/19 09:53:11;;;;;;;2.25;0.90;;;18.90;59.40;;;;;;4989009;28;20097;-66
2020/12/19 09:55:41;;;;;;;2.35;0.80;;;18.90;59.70;;;;;;4996215;28;20044;-65
2020/12/19 09:58:18;;;;;;;1.70;0.82;;;18.90;59.80;;;;;;4999034;28;20052;-64
2020/12/19 10:00:53;;;;;;;1.60;0.90;;;18.80;59.80;;;;;;4995517;28;20030;-64
2020/12/19 10:03:23;;;;;;;1.60;0.82;;;18.80;59.70;;;;;;4993717;28;20451;-66
2020/12/19 10:05:55;;;;;;;1.50;0.50;;;18.80;59.80;;;;;;4982600;28;20045;-65
2020/12/19 10:08:26;;;;;;;2.13;0.77;;;18.80;59.90;;;;;;4995841;28;20042;-65
2020/12/19 10:10:57;;;;;;;2.30;1.02;;;18.80;60.00;;;;;;4997602;28;20149;-66
2020/12/19 10:13:31;;;;;;;3.13;0.90;;;18.80;60.00;;;;;;4985581;28;20078;-66
2020/12/19 10:16:03;;;;;;;1.75;0.68;;;18.80;60.20;;;;;;4985535;28;20369;-65
2020/12/19 10:18:35;;;;;;;2.17;0.98;;;18.80;60.20;;;;;;4997578;28;20047;-65
2020/12/19 10:21:11;;;;;;;2.17;0.73;;;18.80;60.30;;;;;;4990011;28;20044;-64
2020/12/19 10:23:41;;;;;;;1.25;0.60;;;18.70;60.40;;;;;;4993774;28;20150;-64
2020/12/19 10:26:13;;;;;;;2.35;0.95;;;18.80;60.60;;;;;;4992543;28;20488;-66
2020/12/19 10:28:43;;;;;;;2.72;1.08;;;18.70;60.60;;;;;;5001249;28;20045;-64
2020/12/19 10:31:14;;;;;;;1.35;0.75;;;18.70;60.60;;;;;;4986336;28;20401;-64
2020/12/19 10:33:45;;;;;;;2.83;0.88;;;18.70;60.70;;;;;;4984661;28;20061;-65
2020/12/19 10:36:17;;;;;;;1.55;0.73;;;18.70;61.30;;;;;;4991213;28;20057;-65
2020/12/19 10:38:48;;;;;;;;;;;18.60;60.90;;;;;;4984384;28;20043;-65
2020/12/19 10:41:19;;;;;;;1.30;0.70;;;18.60;60.90;;;;;;4984746;28;19933;-65
2020/12/19 10:43:54;;;;;;;2.72;1.27;;;18.70;61.10;;;;;;4996641;28;20060;-66
2020/12/19 10:46:28;;;;;;;2.13;0.70;;;18.60;61.20;;;;;;4995063;28;20046;-65
2020/12/19 10:48:59;;;;;;;2.97;0.77;;;18.60;61.30;;;;;;4990729;28;20046;-64
2020/12/19 10:51:30;;;;;;;4.38;0.95;;;18.60;61.50;;;;;;4990857;28;20053;-66
2020/12/19 10:54:02;;;;;;;0.50;0.40;;;18.60;61.50;;;;;;4996808;28;20042;-66
2020/12/19 10:56:35;;;;;;;3.83;0.95;;;18.60;61.50;;;;;;4986316;28;20046;-65
2020/12/19 10:59:06;;;;;;;2.72;0.75;;;18.50;61.50;;;;;;4997393;28;20351;-68
2020/12/19 11:01:39;;;;;;;2.55;1.15;;;18.50;61.70;;;;;;4996607;28;20599;-64
2020/12/19 11:04:13;;;;;;;2.55;0.70;;;18.50;61.80;;;;;;4990862;28;20478;-66
2020/12/19 11:06:46;;;;;;;2.72;0.77;;;18.50;61.90;;;;;;4995892;28;20037;-65
2020/12/19 11:09:23;;;;;;;3.88;0.90;;;18.50;61.80;;;;;;5000300;28;20038;-66
2020/12/19 11:11:55;;;;;;;1.63;0.77;;;18.50;62.00;;;;;;4987373;28;20502;-66
2020/12/19 11:14:25;;;;;;;;;;;18.40;61.90;;;;;;4987878;28;20053;-66
2020/12/19 11:16:59;;;;;;;1.27;0.52;;;18.40;62.00;;;;;;5001249;28;19925;-65
2020/12/19 11:19:39;;;;;;;1.30;0.68;;;18.40;62.10;;;;;;4994231;28;20046;-64
2020/12/19 11:22:11;;;;;;;0.80;0.77;;;18.40;62.10;;;;;;4985913;28;20144;-66
2020/12/19 11:24:41;;;;;;;3.83;1.23;;;18.40;62.30;;;;;;5002428;28;20069;-64
2020/12/19 11:27:12;;;;;;;1.77;0.90;;;18.30;62.30;;;;;;4990878;28;20074;-64
2020/12/19 11:29:42;;;;;;;3.55;0.73;;;18.30;62.40;;;;;;5002065;28;20069;-64
2020/12/19 11:32:13;;;;;;;3.20;0.63;;;18.30;62.50;;;;;;4995455;28;20081;-64
2020/12/19 11:34:46;;;;;;;;;;;18.30;62.50;;;;;;4991341;28;20037;-64
2020/12/19 11:37:20;;;;;;;1.50;0.40;;;18.30;62.50;;;;;;4993570;28;19926;-63
2020/12/19 11:39:54;;;;;;;3.72;0.82;;;18.20;62.50;;;;;;4992604;28;20069;-63
2020/12/19 11:42:25;;;;;;;2.75;0.90;;;18.20;62.60;;;;;;4993680;28;20185;-64
2020/12/19 11:44:56;;;;;;;3.00;0.55;;;18.20;62.70;;;;;;4990211;28;20123;-64
2020/12/19 11:47:26;;;;;;;1.02;0.52;;;18.20;62.80;;;;;;4987439;28;20069;-64
2020/12/19 11:49:56;;;;;;;1.80;0.73;;;18.20;63.00;;;;;;4992064;28;20093;-67
2020/12/19 11:52:26;;;;;;;0.70;0.70;;;18.10;63.00;;;;;;4993393;28;20046;-66
2020/12/19 11:54:57;;;;;;;1.42;0.68;;;18.10;63.00;;;;;;4989858;28;20117;-65
2020/12/19 11:57:29;;;;;;;6.20;0.93;;;18.10;63.00;;;;;;4997969;28;20109;-64
2020/12/19 12:00:00;;;;;;;3.28;1.10;;;18.10;63.10;;;;;;4991664;28;20501;-65
2020/12/19 12:05:29;;;;;;;3.33;1.00;;;18.10;63.10;;;;;;4991451;28;20092;-67
2020/12/19 12:08:00;;;;;;;2.38;0.90;;;18.10;63.20;;;;;;4992568;28;20046;-65
2020/12/19 12:10:32;;;;;;;1.90;0.98;;;18.00;63.20;;;;;;4990396;28;20078;-65
2020/12/19 12:13:04;;;;;;;2.05;0.80;;;18.00;63.30;;;;;;4990823;28;20084;-64
2020/12/19 12:15:36;;;;;;;1.77;0.73;;;18.00;63.30;;;;;;4993277;28;20121;-67
2020/12/19 12:18:08;;;;;;;1.88;0.80;;;18.00;63.20;;;;;;4990251;28;20395;-63
2020/12/19 12:20:40;;;;;;;1.20;0.63;;;18.00;63.30;;;;;;4989586;28;20045;-64
2020/12/19 12:23:12;;;;;;;2.10;0.98;;;17.90;63.30;;;;;;4996267;28;20042;-64
2020/12/19 12:25:42;;;;;;;2.67;1.00;;;17.90;63.50;;;;;;4995870;28;20560;-64
2020/12/19 12:28:13;;;;;;;2.50;0.75;;;17.90;63.50;;;;;;4990275;28;20042;-63
2020/12/19 12:30:43;;;;;;;3.72;1.35;;;17.90;63.50;;;;;;4986344;28;20054;-64
2020/12/19 12:33:15;;;;;;;2.03;1.13;;;17.90;63.60;;;;;;4988429;28;20066;-65
2020/12/19 12:35:55;;;;;;;2.72;0.98;;;17.90;63.70;;;;;;4986223;28;20373;-64
2020/12/19 12:38:26;;;;;;;2.78;1.20;;;17.90;63.70;;;;;;4987887;28;20057;-64
2020/12/19 12:40:57;;;;;;;2.85;1.08;;;17.80;63.70;;;;;;4989421;28;20096;-64
2020/12/19 12:43:30;;;;;;;2.50;0.90;;;17.80;63.80;;;;;;4993204;28;20053;-64
2020/12/19 12:46:03;;;;;;;2.50;0.93;;;17.70;63.70;;;;;;4990746;28;20132;-64
2020/12/19 12:48:35;;;;;;;1.48;0.82;;;17.70;63.70;;;;;;4990862;28;20141;-65
2020/12/19 12:51:13;;;;;;;3.00;0.77;;;17.70;63.80;;;;;;4987607;28;20100;-66
2020/12/19 12:53:46;;;;;;;2.38;0.98;;;17.70;63.80;;;;;;4985885;28;20133;-66
2020/12/19 12:56:23;;;;;;;3.00;1.70;;;17.70;63.90;;;;;;4983376;28;20107;-66
2020/12/19 12:58:53;;;;;;;3.03;0.90;;;17.70;63.80;;;;;;4997895;28;20070;-65
2020/12/19 13:01:37;;;;;;;3.35;1.10;;;17.60;63.90;;;;;;4988240;28;20038;-65
2020/12/19 13:04:08;;;;;;;2.47;0.88;;;17.60;64.00;;;;;;4991820;28;20029;-65
2020/12/19 13:06:39;;;;;;;2.13;0.68;;;17.60;64.00;;;;;;4990720;28;20042;-66
2020/12/19 13:09:11;;;;;;;2.78;0.70;;;17.60;64.00;;;;;;4985889;28;20049;-65
2020/12/19 13:11:41;;;;;;;2.22;1.08;;;17.60;64.00;;;;;;4997902;28;20137;-68
2020/12/19 13:14:12;;;;;;;2.07;0.80;;;17.60;64.10;;;;;;4987783;28;20100;-66
2020/12/19 13:16:46;;;;;;;1.83;0.70;;;17.50;64.10;;;;;;4989623;28;20552;-65
2020/12/19 13:19:19;;;;;;;2.80;0.90;;;17.50;64.00;;;;;;4986170;28;20065;-65
2020/12/19 13:21:50;;;;;;;2.08;0.95;;;17.50;64.10;;;;;;4986437;28;20038;-65
2020/12/19 13:24:21;;;;;;;1.50;0.80;;;17.50;64.30;;;;;;4989774;28;20255;-63
2020/12/19 13:26:51;;;;;;;2.85;1.15;;;17.50;64.20;;;;;;4989424;28;21294;-65
2020/12/19 13:29:21;;;;;;;2.47;0.88;;;17.40;64.20;;;;;;4985739;28;20808;-66